Florence Villa, Florida
Current Conditions -  °F | °C
As of 1:53 AM on Friday 19 Dec 2014 (Local Time) from KGIF Reporting Station
Clear Clear  
Wind Chill: 53°   Ceiling: Unl
Heat Index: 53°   Visibility: 10mi
Dew Point: 48°   Wind: 6mph
Humidity: 83%   Direction: 360°N
Pressure: 30.13"   Gusts: NA
Location:  28.0577°N, 81.7042°W
Report Text: KGIF 190653Z AUTO 36005KT 10SM CLR 12/09 A3013 RMK AO2 SLP202 T01170089
Loading
Personal Weather Stations






























Interactive Weather Map New forecast layout! Learn more

10-Day Weather Forecast

Advertisements
Track Severe Weather on mobile